Time;durP1;ratioP1;P1;durP2;ratioP2;P2;SDS_P1;SDS_P2;PMS_P1;PMS_P2;Temp;Humidity;BMP_temperature;BMP_pressure;BME280_temperature;BME280_humidity;BME280_pressure;Samples;Min_cycle;Max_cycle;Signal;HPM_P1;HPM_P2
2022/12/16 00:01:07;;;;;;;35.83;5.38;;;;;;;;;;5012736;28;20052;-71
2022/12/16 00:03:34;;;;;;;35.92;6.15;;;;;;;;;;5046077;28;20045;-71
2022/12/16 00:06:03;;;;;;;15.05;4.55;;;;;;;;;;5012317;28;20049;-71
2022/12/16 00:08:32;;;;;;;48.67;5.90;;;;;;;;;;5007561;28;20228;-73
2022/12/16 00:11:00;;;;;;;20.60;5.25;;;;;;;;;;5005192;28;20099;-72
2022/12/16 00:13:27;;;;;;;37.50;5.35;;;;;;;;;;5013281;28;20512;-72
2022/12/16 00:15:54;;;;;;;96.03;9.27;;;;;;;;;;5005768;28;20118;-71
2022/12/16 00:18:22;;;;;;;115.50;10.57;;;;;;;;;;5010667;28;21297;-71
2022/12/16 00:20:50;;;;;;;12.90;4.80;;;;;;;;;;5014201;28;20431;-71
2022/12/16 00:23:19;;;;;;;12.57;5.13;;;;;;;;;;5010881;28;20060;-73
2022/12/16 00:25:47;;;;;;;91.88;7.68;;;;;;;;;;5009162;28;20752;-72
2022/12/16 00:28:15;;;;;;;17.02;4.95;;;;;;;;;;5008908;28;20057;-71
2022/12/16 00:30:42;;;;;;;12.23;4.10;;;;;;;;;;5009093;28;20208;-72
2022/12/16 00:33:09;;;;;;;18.98;5.68;;;;;;;;;;5009531;28;20051;-72
2022/12/16 00:35:37;;;;;;;13.10;4.97;;;;;;;;;;5004494;28;20484;-75
2022/12/16 00:38:04;;;;;;;21.80;5.55;;;;;;;;;;5013306;28;20045;-72
2022/12/16 00:40:33;;;;;;;16.15;5.60;;;;;;;;;;5011449;28;20577;-72
2022/12/16 00:43:00;;;;;;;24.20;6.30;;;;;;;;;;5012128;28;20049;-72
2022/12/16 00:45:27;;;;;;;40.97;6.45;;;;;;;;;;5013190;28;20053;-75
2022/12/16 00:47:57;;;;;;;14.93;5.22;;;;;;;;;;5012720;28;20042;-72
2022/12/16 00:50:25;;;;;;;17.83;4.28;;;;;;;;;;5013549;28;20053;-71
2022/12/16 00:52:52;;;;;;;16.35;5.18;;;;;;;;;;5011055;28;20756;-73
2022/12/16 00:55:20;;;;;;;10.43;4.30;;;;;;;;;;5010718;28;20523;-72
2022/12/16 00:57:48;;;;;;;24.63;6.05;;;;;;;;;;5011916;28;20049;-71
2022/12/16 01:00:17;;;;;;;18.40;4.47;;;;;;;;;;5013304;28;20704;-71
2022/12/16 01:02:46;;;;;;;11.70;4.20;;;;;;;;;;5009626;28;20574;-73
2022/12/16 01:05:15;;;;;;;22.55;5.18;;;;;;;;;;5010314;28;20124;-73
2022/12/16 01:07:43;;;;;;;8.20;3.88;;;;;;;;;;5009446;28;20119;-72
2022/12/16 01:10:10;;;;;;;18.90;5.10;;;;;;;;;;5008957;28;20068;-72
2022/12/16 01:12:38;;;;;;;21.77;5.85;;;;;;;;;;5040560;28;20057;-73
2022/12/16 01:15:08;;;;;;;23.55;5.25;;;;;;;;;;5008271;28;20041;-72
2022/12/16 01:17:36;;;;;;;11.82;5.10;;;;;;;;;;5010719;28;20056;-72
2022/12/16 01:20:03;;;;;;;17.92;6.10;;;;;;;;;;5012834;28;20057;-71
2022/12/16 01:22:31;;;;;;;17.45;5.00;;;;;;;;;;5009573;28;20527;-71
2022/12/16 01:24:58;;;;;;;10.40;4.70;;;;;;;;;;5008499;28;20586;-71
2022/12/16 01:27:26;;;;;;;12.68;5.22;;;;;;;;;;5006544;28;20049;-72
2022/12/16 01:29:53;;;;;;;32.13;6.93;;;;;;;;;;5009383;28;20049;-72
2022/12/16 01:32:22;;;;;;;14.63;5.30;;;;;;;;;;5008964;28;20057;-73
2022/12/16 01:34:50;;;;;;;14.38;5.00;;;;;;;;;;5009945;28;20041;-72
2022/12/16 01:37:19;;;;;;;15.70;4.38;;;;;;;;;;5006894;28;20057;-72
2022/12/16 01:39:46;;;;;;;20.48;5.30;;;;;;;;;;5010069;28;20076;-73
2022/12/16 01:42:14;;;;;;;25.25;5.22;;;;;;;;;;5002689;28;20057;-72
2022/12/16 01:44:45;;;;;;;26.45;5.18;;;;;;;;;;5011862;28;20045;-72
2022/12/16 01:47:15;;;;;;;24.45;5.30;;;;;;;;;;5009109;28;20061;-72
2022/12/16 01:49:46;;;;;;;13.30;4.70;;;;;;;;;;5007502;28;20049;-71
2022/12/16 01:52:16;;;;;;;18.75;4.25;;;;;;;;;;5011318;28;20057;-71
2022/12/16 01:54:45;;;;;;;15.82;4.68;;;;;;;;;;5009364;28;20076;-72
2022/12/16 01:57:14;;;;;;;12.40;3.95;;;;;;;;;;5011679;28;20049;-71
2022/12/16 01:59:43;;;;;;;17.95;5.18;;;;;;;;;;5000605;28;20131;-72
2022/12/16 02:02:12;;;;;;;15.23;3.90;;;;;;;;;;5008200;28;20107;-72
2022/12/16 02:05:19;;;;;;;13.77;4.63;;;;;;;;;;5008809;28;20389;-72
2022/12/16 02:07:28;;;;;;;11.13;3.80;;;;;;;;;;5009540;28;20060;-71
2022/12/16 02:09:56;;;;;;;18.65;4.70;;;;;;;;;;5005350;28;20061;-73
2022/12/16 02:12:30;;;;;;;15.57;4.20;;;;;;;;;;5005174;28;20171;-71
2022/12/16 02:15:06;;;;;;;16.40;6.18;;;;;;;;;;5005093;28;20058;-71
2022/12/16 02:17:37;;;;;;;16.73;4.20;;;;;;;;;;5006166;28;20059;-72
2022/12/16 02:20:25;;;;;;;19.48;3.83;;;;;;;;;;5012949;28;20084;-73
2022/12/16 02:23:04;;;;;;;12.23;3.75;;;;;;;;;;4996082;28;20045;-72
2022/12/16 02:25:44;;;;;;;11.50;4.22;;;;;;;;;;5001311;28;20060;-72
2022/12/16 02:28:13;;;;;;;10.77;3.38;;;;;;;;;;4992072;28;20046;-71
2022/12/16 02:30:58;;;;;;;10.73;3.83;;;;;;;;;;5007306;28;20058;-71
2022/12/16 02:33:43;;;;;;;12.63;3.80;;;;;;;;;;5007216;28;20049;-72
2022/12/16 02:36:13;;;;;;;9.20;3.40;;;;;;;;;;5005954;28;20060;-71
2022/12/16 02:38:42;;;;;;;14.85;4.05;;;;;;;;;;5010549;28;20052;-71
2022/12/16 02:41:13;;;;;;;11.63;4.30;;;;;;;;;;5001522;28;20128;-71
2022/12/16 02:43:49;;;;;;;17.27;4.93;;;;;;;;;;5010044;28;20061;-71
2022/12/16 02:46:16;;;;;;;21.80;5.43;;;;;;;;;;4999158;28;20069;-72
2022/12/16 02:48:45;;;;;;;22.55;5.78;;;;;;;;;;5006461;28;20432;-72
2022/12/16 02:51:12;;;;;;;12.73;4.70;;;;;;;;;;5008098;28;20132;-72
2022/12/16 02:53:42;;;;;;;9.35;3.38;;;;;;;;;;5005472;28;20447;-72
2022/12/16 02:56:17;;;;;;;9.02;3.58;;;;;;;;;;5007062;28;20057;-72
2022/12/16 02:58:47;;;;;;;17.27;3.70;;;;;;;;;;5015988;28;20165;-72
2022/12/16 03:01:20;;;;;;;9.52;3.88;;;;;;;;;;5005111;28;20061;-71
2022/12/16 03:03:55;;;;;;;15.70;3.73;;;;;;;;;;5005019;28;20061;-72
2022/12/16 03:06:26;;;;;;;14.98;3.97;;;;;;;;;;5010344;28;20057;-72
2022/12/16 03:08:55;;;;;;;7.07;3.45;;;;;;;;;;5000744;28;20558;-71
2022/12/16 03:11:24;;;;;;;14.20;4.32;;;;;;;;;;4989267;28;20053;-72
2022/12/16 03:13:53;;;;;;;9.18;3.67;;;;;;;;;;4988586;28;20058;-72
2022/12/16 03:16:22;;;;;;;13.00;3.40;;;;;;;;;;4988487;28;20069;-71
2022/12/16 03:18:53;;;;;;;14.48;4.18;;;;;;;;;;4988629;28;20058;-71
2022/12/16 03:21:21;;;;;;;11.80;3.65;;;;;;;;;;4991598;28;20050;-71
2022/12/16 03:23:50;;;;;;;21.20;5.35;;;;;;;;;;4987961;28;20061;-73
2022/12/16 03:26:22;;;;;;;17.17;4.57;;;;;;;;;;4988477;28;20465;-73
2022/12/16 03:28:53;;;;;;;16.02;4.85;;;;;;;;;;4989949;28;20045;-72
2022/12/16 03:31:27;;;;;;;11.77;4.05;;;;;;;;;;4989256;28;20491;-73
2022/12/16 03:33:59;;;;;;;13.75;5.00;;;;;;;;;;4979377;28;20074;-72
2022/12/16 03:36:27;;;;;;;23.17;7.30;;;;;;;;;;4977801;28;20548;-72
2022/12/16 03:38:56;;;;;;;14.85;5.80;;;;;;;;;;4976207;28;20054;-73
2022/12/16 03:41:24;;;;;;;21.33;6.25;;;;;;;;;;4979837;28;20042;-72
2022/12/16 03:43:52;;;;;;;14.27;5.55;;;;;;;;;;4981410;28;20068;-75
2022/12/16 03:46:19;;;;;;;17.95;5.60;;;;;;;;;;4987205;28;20101;-72
2022/12/16 03:48:47;;;;;;;8.75;4.47;;;;;;;;;;4990349;28;20041;-72
2022/12/16 03:51:16;;;;;;;13.23;5.18;;;;;;;;;;4989686;28;20485;-73
2022/12/16 03:53:43;;;;;;;12.68;4.75;;;;;;;;;;4982020;28;20147;-73
2022/12/16 03:56:11;;;;;;;12.75;5.70;;;;;;;;;;4971821;28;20511;-71
2022/12/16 03:58:39;;;;;;;11.80;5.57;;;;;;;;;;4986455;28;20593;-72
2022/12/16 04:01:08;;;;;;;8.90;4.30;;;;;;;;;;4986549;28;20046;-71
2022/12/16 04:03:35;;;;;;;11.00;5.35;;;;;;;;;;4986750;28;20150;-73
2022/12/16 04:06:03;;;;;;;12.07;5.13;;;;;;;;;;4987057;28;20494;-71
2022/12/16 04:08:31;;;;;;;8.52;4.60;;;;;;;;;;4986825;28;20455;-72
2022/12/16 04:24:51;;;;;;;12.40;6.32;;;;;;;;;;5006090;28;20196;-72
2022/12/16 04:27:24;;;;;;;11.65;5.55;;;;;;;;;;5006874;28;20046;-72
